createdAt,value
2023-03-14T00:03:46.838Z,77.17
2023-03-14T00:27:54.613Z,75.12
2023-03-14T00:32:57.857Z,74.52
2023-03-14T00:38:01.054Z,74.78
2023-03-14T00:43:05.598Z,74.61
2023-03-14T00:48:08.787Z,74.65
2023-03-14T00:53:12.355Z,76.38
2023-03-14T00:58:19.095Z,79.80
2023-03-14T01:03:22.298Z,81.12
2023-03-14T01:08:25.464Z,82.64
2023-03-14T01:13:30.200Z,84.16
2023-03-14T01:18:33.667Z,84.64
2023-03-14T01:23:37.155Z,86.01
2023-03-14T01:28:42.106Z,88.52
2023-03-14T01:33:45.418Z,90.75
2023-03-14T01:38:48.613Z,92.21
2023-03-14T01:43:53.724Z,93.64
2023-03-14T01:49:01.922Z,94.75
2023-03-14T01:54:10.660Z,95.36
2023-03-14T01:59:15.543Z,96.42
2023-03-14T02:04:21.179Z,97.51
2023-03-14T02:09:24.783Z,97.75
2023-03-14T02:14:34.047Z,99.61
2023-03-14T02:19:51.534Z,99.84
2023-03-14T02:25:04.578Z,100.00
2023-03-14T02:30:10.799Z,100.00
2023-03-14T02:35:16.682Z,100.00
2023-03-14T02:40:20.026Z,100.00
2023-03-14T02:45:39.968Z,100.00
2023-03-14T02:50:44.263Z,100.00
2023-03-14T02:55:49.629Z,100.00
2023-03-14T03:12:11.016Z,100.00
2023-03-14T03:17:14.424Z,100.00
2023-03-14T03:22:17.832Z,100.00
2023-03-14T03:27:22.560Z,100.00
2023-03-14T03:32:26.065Z,100.00
2023-03-14T03:37:29.457Z,100.00
2023-03-14T03:42:35.126Z,100.00
2023-03-14T03:47:38.327Z,100.00
2023-03-14T03:52:41.554Z,100.00
2023-03-14T03:57:46.364Z,100.00
2023-03-14T04:02:49.837Z,100.00
2023-03-14T04:07:53.498Z,100.00
2023-03-14T04:12:58.135Z,100.00
2023-03-14T04:18:01.337Z,100.00
2023-03-14T04:23:04.544Z,100.00
2023-03-14T04:28:09.257Z,100.00
2023-03-14T04:33:13.784Z,100.00
2023-03-14T04:38:16.998Z,100.00
2023-03-14T04:43:21.593Z,100.00
2023-03-14T04:48:25.265Z,100.00
2023-03-14T04:53:28.382Z,100.00
2023-03-14T04:58:33.130Z,100.00
2023-03-14T05:03:37.205Z,100.00
2023-03-14T05:08:40.584Z,100.00
2023-03-14T05:13:45.174Z,100.00
2023-03-14T05:18:48.410Z,100.00
2023-03-14T05:23:51.842Z,100.00
2023-03-14T05:28:56.524Z,100.00
2023-03-14T05:33:59.847Z,100.00
2023-03-14T05:39:03.168Z,100.00
2023-03-14T05:44:07.771Z,100.00
2023-03-14T05:49:10.957Z,98.10
2023-03-14T05:54:14.185Z,96.51
2023-03-14T05:59:19.043Z,94.95
2023-03-14T06:04:22.437Z,94.08
2023-03-14T06:09:26.403Z,93.06
2023-03-14T06:14:31.377Z,91.46
2023-03-14T06:19:34.738Z,89.78
2023-03-14T06:24:37.982Z,86.70
2023-03-14T06:29:43.289Z,84.62
2023-03-14T06:34:46.615Z,83.69
2023-03-14T06:39:49.814Z,82.91
2023-03-14T06:44:54.564Z,82.42
2023-03-14T06:49:57.878Z,81.18
2023-03-14T06:55:01.267Z,78.98
2023-03-14T07:00:07.642Z,79.27
2023-03-14T07:05:11.958Z,79.23
2023-03-14T07:10:15.428Z,77.11
2023-03-14T07:15:20.208Z,76.74
2023-03-14T07:20:23.460Z,75.38
2023-03-14T07:25:26.758Z,73.88
2023-03-14T07:30:31.679Z,72.65
2023-03-14T07:35:35.054Z,69.86
2023-03-14T07:40:38.397Z,68.43
2023-03-14T07:45:43.447Z,69.04
2023-03-14T07:50:50.099Z,67.21
2023-03-14T07:55:54.659Z,65.46
2023-03-14T08:01:01.546Z,65.45
2023-03-14T08:06:05.406Z,65.04
2023-03-14T08:11:10.696Z,64.80
2023-03-14T08:16:15.553Z,65.04
2023-03-14T08:21:19.021Z,62.73
2023-03-14T08:26:23.237Z,61.57
2023-03-14T08:31:27.890Z,62.20
2023-03-14T08:36:32.123Z,60.11
2023-03-14T08:41:41.135Z,59.36
2023-03-14T08:46:45.857Z,56.90
2023-03-14T08:51:49.209Z,56.86
2023-03-14T08:56:52.538Z,55.67
2023-03-14T09:01:57.305Z,54.28
2023-03-14T09:07:01.017Z,53.36
2023-03-14T09:12:04.719Z,53.03
2023-03-14T09:17:09.605Z,52.88
2023-03-14T09:22:12.884Z,51.54
2023-03-14T09:27:16.266Z,51.41
2023-03-14T09:32:21.067Z,51.31
2023-03-14T09:37:24.416Z,50.76
2023-03-14T09:42:29.880Z,49.93
2023-03-14T09:47:39.502Z,50.73
2023-03-14T09:52:48.483Z,50.62
2023-03-14T09:57:57.072Z,49.93
2023-03-14T10:03:22.646Z,49.50
2023-03-14T10:08:25.955Z,49.04
2023-03-14T10:13:30.567Z,49.19
2023-03-14T10:18:38.552Z,49.04
2023-03-14T10:23:41.892Z,49.16
2023-03-14T10:28:47.321Z,48.18
2023-03-14T10:34:02.772Z,48.26
2023-03-14T10:39:29.737Z,48.47
2023-03-14T10:44:34.277Z,49.11
2023-03-14T10:49:40.099Z,48.27
2023-03-14T10:54:45.903Z,46.75
2023-03-14T10:59:50.098Z,47.02
2023-03-14T11:05:06.188Z,46.08
2023-03-14T11:10:21.606Z,46.18
2023-03-14T11:15:30.092Z,45.86
2023-03-14T11:20:45.523Z,45.58
2023-03-14T11:25:58.141Z,46.24
2023-03-14T11:31:08.078Z,45.89
2023-03-14T11:36:17.530Z,45.32
2023-03-14T11:41:28.075Z,46.18
2023-03-14T11:46:35.851Z,46.38
2023-03-14T11:51:42.672Z,46.26
2023-03-14T11:56:53.160Z,45.22
2023-03-14T12:02:01.579Z,43.98
2023-03-14T12:07:11.640Z,44.74
2023-03-14T12:12:19.201Z,46.26
2023-03-14T12:17:24.938Z,47.12
2023-03-14T12:22:32.173Z,48.42
2023-03-14T12:28:05.779Z,48.96
2023-03-14T12:33:32.301Z,49.33
2023-03-14T12:38:49.466Z,49.77
2023-03-14T12:43:53.046Z,50.42
2023-03-14T12:49:08.508Z,50.55
2023-03-14T12:54:28.575Z,50.32
2023-03-14T12:59:35.081Z,50.88
2023-03-14T13:04:45.737Z,51.30
2023-03-14T13:09:57.526Z,51.63
2023-03-14T13:15:03.802Z,51.86
2023-03-14T13:20:17.073Z,52.68
2023-03-14T13:25:23.111Z,53.19
2023-03-14T13:30:29.014Z,53.27
2023-03-14T13:35:42.048Z,53.34
2023-03-14T13:40:48.209Z,53.71
2023-03-14T13:45:58.370Z,53.71
2023-03-14T13:51:05.591Z,53.76
2023-03-14T13:56:12.946Z,53.95
2023-03-14T14:01:20.038Z,54.35
2023-03-14T14:06:33.018Z,55.51
2023-03-14T14:11:51.009Z,55.19
2023-03-14T14:16:59.661Z,55.63
2023-03-14T14:22:03.814Z,56.14
2023-03-14T14:27:17.928Z,56.36
2023-03-14T14:32:22.395Z,56.82
2023-03-14T14:37:28.146Z,55.98
2023-03-14T14:42:34.155Z,56.27
2023-03-14T14:47:37.490Z,57.22
2023-03-14T14:52:48.826Z,56.32
2023-03-14T14:57:55.344Z,56.43
2023-03-14T15:03:02.336Z,56.30
2023-03-14T15:08:10.718Z,56.70
2023-03-14T15:13:15.310Z,56.25
2023-03-14T15:18:20.392Z,55.77
2023-03-14T15:23:23.889Z,56.52
2023-03-14T15:28:29.907Z,56.76
2023-03-14T15:33:33.841Z,56.59
2023-03-14T15:38:36.971Z,57.21
2023-03-14T15:43:41.813Z,57.20
2023-03-14T15:48:45.814Z,57.69
2023-03-14T15:53:49.136Z,58.17
2023-03-14T15:58:53.827Z,58.98
2023-03-14T16:03:57.577Z,58.77
2023-03-14T16:09:00.758Z,59.68
2023-03-14T16:14:05.353Z,59.28
2023-03-14T16:19:09.248Z,59.73
2023-03-14T16:24:12.669Z,59.74
2023-03-14T16:29:17.395Z,59.71
2023-03-14T16:34:20.737Z,59.84
2023-03-14T16:39:24.153Z,59.86
2023-03-14T16:44:29.034Z,59.84
2023-03-14T16:49:32.463Z,59.46
2023-03-14T16:54:36.737Z,59.50
2023-03-14T16:59:41.358Z,59.87
2023-03-14T17:04:45.159Z,59.13
2023-03-14T17:09:49.814Z,59.02
2023-03-14T17:14:55.529Z,59.36
2023-03-14T17:19:58.673Z,59.26
2023-03-14T17:25:02.098Z,59.09
2023-03-14T17:30:11.710Z,59.87
2023-03-14T17:35:15.349Z,58.87
2023-03-14T17:40:18.768Z,58.93
2023-03-14T17:45:23.780Z,58.91
2023-03-14T17:50:27.198Z,58.93
2023-03-14T17:55:31.463Z,59.10
2023-03-14T18:00:36.294Z,58.83
2023-03-14T18:05:40.808Z,58.35
2023-03-14T18:10:44.141Z,58.55
2023-03-14T18:15:49.393Z,57.85
2023-03-14T18:20:53.978Z,57.75
2023-03-14T18:26:00.224Z,57.75
2023-03-14T18:31:08.563Z,57.45
2023-03-14T18:36:12.553Z,58.09
2023-03-14T18:41:19.000Z,57.61
2023-03-14T18:46:24.174Z,57.44
2023-03-14T18:51:31.941Z,57.36
2023-03-14T18:56:35.540Z,57.40
2023-03-14T19:01:41.095Z,56.67
2023-03-14T19:06:44.391Z,56.54
2023-03-14T19:11:47.639Z,56.38
2023-03-14T19:16:52.365Z,56.20
2023-03-14T19:21:55.618Z,56.02
2023-03-14T19:26:58.840Z,56.64
2023-03-14T19:32:03.661Z,55.90
2023-03-14T19:37:07.005Z,55.71
2023-03-14T19:42:10.445Z,55.85
2023-03-14T19:47:15.117Z,55.81
2023-03-14T19:52:18.800Z,55.16
2023-03-14T19:57:25.561Z,55.41
2023-03-14T20:02:31.605Z,55.81
2023-03-14T20:07:35.424Z,55.88
2023-03-14T20:12:40.260Z,55.13
2023-03-14T20:17:44.990Z,54.74
2023-03-14T20:22:49.167Z,54.62
2023-03-14T20:27:53.187Z,54.62
2023-03-14T20:32:58.132Z,54.99
2023-03-14T20:38:01.445Z,54.07
2023-03-14T20:43:04.668Z,54.05
2023-03-14T20:48:09.271Z,54.50
2023-03-14T20:53:12.512Z,55.08
2023-03-14T20:58:15.996Z,54.80
2023-03-14T21:03:20.851Z,55.13
2023-03-14T21:08:25.703Z,54.77
2023-03-14T21:13:31.485Z,55.70
2023-03-14T21:18:36.290Z,55.27
2023-03-14T21:23:39.621Z,55.46
2023-03-14T21:28:43.227Z,55.74
2023-03-14T21:33:49.103Z,56.02
2023-03-14T21:38:52.328Z,55.63
2023-03-14T21:43:55.511Z,55.55
2023-03-14T21:49:00.212Z,56.25
2023-03-14T21:54:10.230Z,55.19
2023-03-14T21:59:15.681Z,55.15
2023-03-14T22:04:26.416Z,55.03
2023-03-14T22:09:29.804Z,55.00
2023-03-14T22:14:33.435Z,55.19
2023-03-14T22:19:38.270Z,54.61
2023-03-14T22:24:41.731Z,55.31
2023-03-14T22:29:45.142Z,55.39
2023-03-14T22:34:50.098Z,55.44
2023-03-14T22:39:56.318Z,55.68
2023-03-14T22:44:59.584Z,55.16
2023-03-14T22:50:04.867Z,55.20
2023-03-14T22:55:08.919Z,56.12
2023-03-14T23:00:16.945Z,55.85
2023-03-14T23:05:22.387Z,56.55
2023-03-14T23:10:25.656Z,55.70
2023-03-14T23:15:30.080Z,55.85
2023-03-14T23:20:34.708Z,56.72
2023-03-14T23:25:50.612Z,56.42
2023-03-14T23:30:56.779Z,56.53
2023-03-14T23:36:04.008Z,56.59
2023-03-14T23:41:07.390Z,56.63
2023-03-14T23:46:11.274Z,57.22
2023-03-14T23:51:17.316Z,57.12
2023-03-14T23:56:21.151Z,57.88
